Time;durP1;ratioP1;P1;durP2;ratioP2;P2;SDS_P1;SDS_P2;PMS_P1;PMS_P2;Temp;Humidity;BMP_temperature;BMP_pressure;BME280_temperature;BME280_humidity;BME280_pressure;Samples;Min_cycle;Max_cycle;Signal;HPM_P1;HPM_P2
2024/01/09 00:02:00;;;;;;;4.25;3.85;;;-4.00;93.00;;;;;;5045316;27;20214;-83
2024/01/09 00:04:28;;;;;;;4.20;2.50;;;-4.00;93.30;;;;;;5044417;28;20220;-82
2024/01/09 00:06:55;;;;;;;8.48;4.55;;;-4.10;93.50;;;;;;5051658;27;20210;-83
2024/01/09 00:09:22;;;;;;;6.18;3.83;;;-4.20;93.40;;;;;;5046003;27;20666;-83
2024/01/09 00:11:49;;;;;;;5.93;3.97;;;-4.20;93.60;;;;;;5038877;27;20307;-84
2024/01/09 00:14:16;;;;;;;8.05;3.63;;;-4.30;93.70;;;;;;5040761;27;20231;-83
2024/01/09 00:16:43;;;;;;;4.25;3.80;;;-4.30;93.70;;;;;;5047570;27;20244;-83
2024/01/09 00:19:10;;;;;;;5.75;5.28;;;-4.30;93.70;;;;;;5039130;27;20205;-83
2024/01/09 00:21:39;;;;;;;5.00;3.95;;;-4.30;93.60;;;;;;5042400;28;20499;-83
2024/01/09 00:24:07;;;;;;;3.92;3.58;;;-4.20;93.60;;;;;;5043365;27;20205;-83
2024/01/09 00:26:41;;;;;;;6.10;3.97;;;-4.10;93.40;;;;;;5041801;27;20229;-83
2024/01/09 00:29:07;;;;;;;4.40;3.17;;;-4.20;93.50;;;;;;5036992;27;20211;-84
2024/01/09 00:31:34;;;;;;;4.63;4.22;;;-4.20;93.40;;;;;;5035400;28;20208;-83
2024/01/09 00:34:01;;;;;;;10.73;6.50;;;-4.20;93.50;;;;;;5042787;27;20214;-84
2024/01/09 00:36:28;;;;;;;5.50;4.20;;;-4.20;93.30;;;;;;5036764;27;20228;-84
2024/01/09 00:38:56;;;;;;;3.47;3.17;;;-4.10;93.10;;;;;;5038986;27;20209;-84
2024/01/09 00:41:24;;;;;;;14.65;3.53;;;-4.30;93.30;;;;;;5033159;27;20205;-83
2024/01/09 00:43:51;;;;;;;4.28;3.85;;;-4.20;93.10;;;;;;5032173;27;20219;-84
2024/01/09 00:46:17;;;;;;;3.47;3.17;;;-4.20;93.10;;;;;;5029426;27;20646;-84
2024/01/09 00:48:44;;;;;;;6.55;3.58;;;-4.10;92.90;;;;;;5047388;27;20215;-81
2024/01/09 00:51:11;;;;;;;4.93;4.35;;;-4.30;92.80;;;;;;5050311;27;20203;-82
2024/01/09 00:53:38;;;;;;;4.80;4.15;;;-4.30;93.10;;;;;;5052378;28;20670;-83
2024/01/09 00:56:07;;;;;;;4.60;3.90;;;-4.40;93.00;;;;;;5046603;28;20259;-82
2024/01/09 00:58:34;;;;;;;4.00;3.70;;;-4.40;93.30;;;;;;5052660;27;20216;-82
2024/01/09 01:01:00;;;;;;;5.47;4.95;;;-4.20;92.90;;;;;;5051672;27;20216;-82
2024/01/09 01:03:27;;;;;;;4.43;3.25;;;-4.20;92.70;;;;;;5055649;27;20639;-82
2024/01/09 01:05:54;;;;;;;4.00;3.70;;;-4.40;92.60;;;;;;5044410;27;20288;-83
2024/01/09 01:08:21;;;;;;;11.90;5.57;;;-4.50;92.80;;;;;;5050763;27;20201;-81
2024/01/09 01:10:48;;;;;;;4.95;4.30;;;-4.30;92.80;;;;;;5050700;27;20203;-84
2024/01/09 01:13:16;;;;;;;5.63;2.70;;;-4.40;92.50;;;;;;5037061;28;20571;-82
2024/01/09 01:15:43;;;;;;;6.22;4.82;;;-4.40;92.60;;;;;;5047839;27;20730;-84
2024/01/09 01:18:10;;;;;;;3.63;2.67;;;-4.40;92.60;;;;;;5037502;27;20208;-83
2024/01/09 01:20:36;;;;;;;13.90;6.93;;;-4.50;92.60;;;;;;5043648;27;20208;-82
2024/01/09 01:23:03;;;;;;;5.53;3.25;;;-4.50;92.70;;;;;;5047527;27;20251;-84
2024/01/09 01:25:30;;;;;;;6.50;3.13;;;-4.40;92.70;;;;;;5046540;27;20213;-83
2024/01/09 01:27:57;;;;;;;4.97;4.43;;;-4.40;92.50;;;;;;5042008;27;20204;-84
2024/01/09 01:30:25;;;;;;;2.50;2.40;;;-4.40;92.70;;;;;;5042267;27;20225;-83
2024/01/09 01:32:52;;;;;;;4.43;3.78;;;-4.40;92.70;;;;;;5037796;27;20210;-84
2024/01/09 01:35:19;;;;;;;4.20;3.90;;;-4.30;92.50;;;;;;5046034;27;20209;-83
2024/01/09 01:37:45;;;;;;;3.72;2.95;;;-4.40;92.70;;;;;;5035496;27;20224;-85
2024/01/09 01:40:13;;;;;;;4.18;3.78;;;-4.50;92.80;;;;;;5031695;28;20276;-84
2024/01/09 01:42:40;;;;;;;3.67;3.28;;;-4.50;92.60;;;;;;5039064;28;20208;-84
2024/01/09 01:45:15;;;;;;;4.80;4.40;;;-4.40;92.30;;;;;;5032864;28;20211;-82
2024/01/09 01:47:45;;;;;;;2.30;2.20;;;-4.50;92.20;;;;;;5034219;28;20213;-83
2024/01/09 01:50:12;;;;;;;7.88;4.53;;;-4.40;92.40;;;;;;5040336;28;20212;-83
2024/01/09 01:52:39;;;;;;;2.90;2.67;;;-4.40;92.40;;;;;;5056633;28;20567;-83
2024/01/09 01:55:08;;;;;;;2.90;2.65;;;-4.40;92.40;;;;;;5054409;28;20204;-84
2024/01/09 01:57:34;;;;;;;5.18;4.72;;;-4.50;92.40;;;;;;5054306;28;20557;-84
2024/01/09 02:00:01;;;;;;;8.45;6.00;;;-4.50;92.30;;;;;;5050868;28;20300;-84
2024/01/09 02:02:29;;;;;;;4.93;4.53;;;-4.60;92.60;;;;;;5046483;28;20212;-83
2024/01/09 02:04:57;;;;;;;5.85;4.43;;;-4.40;92.50;;;;;;5050667;28;20263;-84
2024/01/09 02:07:27;;;;;;;5.13;4.57;;;-4.40;92.20;;;;;;5058238;28;20224;-84
2024/01/09 02:09:56;;;;;;;6.28;3.60;;;-4.50;92.40;;;;;;5041183;28;20235;-84
2024/01/09 02:12:24;;;;;;;4.82;4.43;;;-4.50;92.50;;;;;;5054320;28;20329;-83
2024/01/09 02:14:51;;;;;;;4.13;3.72;;;-4.50;92.30;;;;;;5050030;28;20276;-82
2024/01/09 02:17:18;;;;;;;6.47;4.47;;;-4.50;92.30;;;;;;5051963;28;20311;-83
2024/01/09 02:19:44;;;;;;;7.32;5.50;;;-4.60;92.60;;;;;;5056659;28;20286;-84
2024/01/09 02:22:13;;;;;;;5.05;3.67;;;-4.70;92.80;;;;;;5048634;28;20211;-84
2024/01/09 02:24:40;;;;;;;4.75;3.05;;;-4.70;92.80;;;;;;5054882;28;20216;-83
2024/01/09 02:27:14;;;;;;;4.45;4.05;;;-4.90;93.10;;;;;;5045418;28;20379;-84
2024/01/09 02:29:49;;;;;;;9.23;3.97;;;-4.80;92.90;;;;;;5052729;28;20215;-84
2024/01/09 02:32:17;;;;;;;8.23;5.88;;;-4.80;92.90;;;;;;5045533;28;20664;-84
2024/01/09 02:34:46;;;;;;;4.75;3.78;;;-4.80;92.80;;;;;;5049141;28;20217;-84
2024/01/09 02:37:14;;;;;;;4.53;4.18;;;-4.70;92.70;;;;;;5049367;28;20239;-83
2024/01/09 02:39:42;;;;;;;9.68;2.80;;;-4.80;92.60;;;;;;5044219;28;20205;-84
2024/01/09 02:42:10;;;;;;;4.13;3.28;;;-4.90;92.70;;;;;;5039576;28;20585;-84
2024/01/09 02:44:38;;;;;;;3.45;3.15;;;-4.70;92.80;;;;;;5047844;27;20212;-84
2024/01/09 02:47:06;;;;;;;4.45;4.00;;;-4.90;92.80;;;;;;5037691;28;20283;-85
2024/01/09 02:49:34;;;;;;;6.43;4.50;;;-4.90;92.80;;;;;;5041989;27;20288;-84
2024/01/09 02:52:03;;;;;;;3.88;3.58;;;-4.90;92.60;;;;;;5049489;28;20201;-83
2024/01/09 02:54:31;;;;;;;3.00;2.80;;;-4.90;93.10;;;;;;5052920;28;20212;-83
2024/01/09 02:56:58;;;;;;;5.03;4.30;;;-4.90;92.80;;;;;;5054139;28;20220;-84
2024/01/09 02:59:26;;;;;;;7.28;3.40;;;-5.00;93.20;;;;;;5057832;28;20640;-84
2024/01/09 03:01:54;;;;;;;6.13;4.65;;;-5.00;93.60;;;;;;5053657;27;20204;-83
2024/01/09 03:04:23;;;;;;;4.60;3.88;;;-5.00;93.30;;;;;;5061422;28;20199;-84
2024/01/09 03:06:51;;;;;;;2.00;1.90;;;-5.10;93.30;;;;;;5054522;28;20210;-83
2024/01/09 03:09:18;;;;;;;4.10;3.40;;;-5.00;93.40;;;;;;5047959;28;20228;-84
2024/01/09 03:11:45;;;;;;;5.43;4.05;;;-5.10;93.30;;;;;;5050753;28;20202;-84
2024/01/09 03:14:13;;;;;;;5.18;4.68;;;-5.10;93.20;;;;;;5048056;28;20630;-84
2024/01/09 03:16:39;;;;;;;3.10;2.85;;;-5.00;93.10;;;;;;5057840;28;20228;-84
2024/01/09 03:19:06;;;;;;;11.68;4.53;;;-5.00;93.00;;;;;;5049249;28;20300;-84
2024/01/09 03:21:34;;;;;;;2.83;2.60;;;-5.00;92.90;;;;;;5054508;28;20205;-85
2024/01/09 03:24:02;;;;;;;5.95;4.47;;;-5.00;93.30;;;;;;5046494;28;20208;-84
2024/01/09 03:26:29;;;;;;;4.18;3.78;;;-5.10;92.80;;;;;;5052954;27;20269;-84
2024/01/09 03:28:58;;;;;;;9.38;4.45;;;-5.10;93.00;;;;;;5047285;28;20216;-84
2024/01/09 03:31:26;;;;;;;3.65;3.25;;;-5.00;93.00;;;;;;5044986;27;20201;-85
2024/01/09 03:33:53;;;;;;;5.60;4.22;;;-5.10;93.10;;;;;;5044974;28;20814;-84
2024/01/09 03:36:21;;;;;;;4.70;2.83;;;-5.10;93.00;;;;;;5045782;28;20216;-83
2024/01/09 03:38:52;;;;;;;7.43;4.57;;;-4.90;92.80;;;;;;5071656;27;20232;-85
2024/01/09 03:41:19;;;;;;;3.72;2.85;;;-4.90;92.70;;;;;;5092056;27;20203;-84
2024/01/09 03:43:47;;;;;;;11.25;6.93;;;-4.90;92.50;;;;;;5091528;27;20219;-84
2024/01/09 03:46:13;;;;;;;6.55;4.07;;;-4.80;92.50;;;;;;5085944;27;20200;-84
2024/01/09 03:48:40;;;;;;;4.20;3.90;;;-4.80;92.20;;;;;;5086703;27;20563;-84
2024/01/09 03:51:07;;;;;;;3.45;2.45;;;-4.80;92.30;;;;;;5082262;27;20224;-84
2024/01/09 03:53:34;;;;;;;3.88;3.58;;;-4.70;92.30;;;;;;5074577;27;20210;-83
2024/01/09 03:56:02;;;;;;;4.82;4.25;;;-4.80;92.20;;;;;;5049083;28;20827;-84
2024/01/09 03:58:29;;;;;;;4.50;4.13;;;-4.70;91.90;;;;;;5043923;28;20243;-84
2024/01/09 04:00:56;;;;;;;4.90;3.78;;;-4.70;91.80;;;;;;5038842;28;20303;-84
2024/01/09 04:03:23;;;;;;;12.75;4.63;;;-4.80;91.90;;;;;;5043534;28;20227;-84
2024/01/09 04:05:50;;;;;;;3.53;2.78;;;-4.90;92.00;;;;;;5045262;28;20297;-82
2024/01/09 04:08:17;;;;;;;4.65;4.25;;;-5.00;91.90;;;;;;5037617;28;20192;-85
2024/01/09 04:10:44;;;;;;;6.90;5.68;;;-5.10;92.30;;;;;;5052694;28;20250;-84
2024/01/09 04:13:12;;;;;;;6.20;3.40;;;-5.10;92.30;;;;;;5057209;28;20281;-85
2024/01/09 04:15:39;;;;;;;2.90;2.80;;;-5.00;92.40;;;;;;5045822;28;20754;-84
2024/01/09 04:18:06;;;;;;;3.45;3.05;;;-5.00;92.30;;;;;;5047407;28;20752;-83
2024/01/09 04:20:33;;;;;;;10.13;5.05;;;-4.90;92.20;;;;;;5051454;28;20286;-84
2024/01/09 04:23:00;;;;;;;7.70;3.83;;;-4.90;91.60;;;;;;5054299;27;20211;-84
2024/01/09 04:25:27;;;;;;;3.50;2.80;;;-4.80;91.70;;;;;;5044979;28;20218;-84
2024/01/09 04:27:54;;;;;;;3.22;2.92;;;-4.80;91.40;;;;;;5050801;28;20216;-84
2024/01/09 04:30:22;;;;;;;13.68;5.85;;;-4.70;91.60;;;;;;5049503;28;20200;-84
2024/01/09 04:32:49;;;;;;;3.25;2.72;;;-4.80;91.50;;;;;;5048735;28;20207;-84
2024/01/09 04:35:16;;;;;;;6.05;2.75;;;-4.80;91.40;;;;;;5045050;28;20304;-84
2024/01/09 04:37:42;;;;;;;5.85;4.20;;;-4.70;91.30;;;;;;5055788;28;20216;-83
2024/01/09 04:40:09;;;;;;;5.75;5.35;;;-4.70;91.30;;;;;;5042737;28;20226;-84
2024/01/09 04:42:36;;;;;;;5.57;3.55;;;-4.80;91.20;;;;;;5052439;28;20240;-84
2024/01/09 04:45:04;;;;;;;3.65;2.72;;;-4.70;91.20;;;;;;5047355;28;20214;-83
2024/01/09 04:47:32;;;;;;;3.15;2.95;;;-4.80;91.20;;;;;;5045536;27;20213;-84
2024/01/09 04:49:58;;;;;;;4.82;3.10;;;-4.80;91.30;;;;;;5054300;27;20211;-84
2024/01/09 04:52:25;;;;;;;3.88;3.13;;;-4.90;91.60;;;;;;5076230;27;20647;-84
2024/01/09 04:54:52;;;;;;;6.25;3.50;;;-5.10;91.60;;;;;;5042864;28;20300;-83
2024/01/09 04:57:19;;;;;;;4.72;3.90;;;-5.00;91.70;;;;;;5040910;28;20235;-84
2024/01/09 04:59:46;;;;;;;10.43;5.50;;;-5.10;91.70;;;;;;5042721;28;20305;-84
2024/01/09 05:02:13;;;;;;;3.80;3.50;;;-5.00;91.80;;;;;;5032972;28;20211;-83
2024/01/09 05:04:41;;;;;;;4.25;3.92;;;-5.00;91.30;;;;;;5038947;28;20212;-83
2024/01/09 05:07:07;;;;;;;4.00;3.78;;;-5.00;91.50;;;;;;5034237;28;20201;-83
2024/01/09 05:09:34;;;;;;;15.48;4.40;;;-5.00;91.50;;;;;;5041812;28;20218;-84
2024/01/09 05:12:01;;;;;;;4.07;3.80;;;-5.00;91.60;;;;;;5048695;28;20586;-83
2024/01/09 05:14:28;;;;;;;3.40;3.15;;;-5.10;91.50;;;;;;5050976;28;20291;-84
2024/01/09 05:16:54;;;;;;;2.17;2.08;;;-5.10;91.60;;;;;;5048753;28;20222;-84
2024/01/09 05:19:21;;;;;;;6.40;3.15;;;-5.30;91.40;;;;;;5040784;28;20204;-84
2024/01/09 05:21:49;;;;;;;7.97;4.07;;;-5.20;91.70;;;;;;5051444;27;20208;-84
2024/01/09 05:24:16;;;;;;;3.97;3.55;;;-5.20;91.50;;;;;;5049293;28;20580;-84
2024/01/09 05:26:43;;;;;;;2.97;2.13;;;-5.30;91.60;;;;;;5055795;28;20235;-84
2024/01/09 05:29:10;;;;;;;8.23;2.85;;;-5.10;91.60;;;;;;5053729;28;20205;-84
2024/01/09 05:31:42;;;;;;;4.43;3.92;;;-5.10;91.50;;;;;;5055418;28;20210;-83
2024/01/09 05:34:09;;;;;;;6.60;3.00;;;-5.10;91.30;;;;;;5049025;28;20208;-79
2024/01/09 05:36:36;;;;;;;4.90;4.50;;;-5.20;91.60;;;;;;5049202;28;20216;-79
2024/01/09 05:39:04;;;;;;;5.03;4.05;;;-5.20;91.30;;;;;;5048828;28;20235;-79
2024/01/09 05:41:31;;;;;;;5.55;4.47;;;-5.20;91.20;;;;;;5051302;28;20219;-79
2024/01/09 05:43:58;;;;;;;3.90;3.03;;;-5.20;91.20;;;;;;5045072;28;20212;-78
2024/01/09 05:46:25;;;;;;;6.38;3.60;;;-5.20;91.10;;;;;;5050035;28;20378;-78
2024/01/09 05:48:52;;;;;;;4.80;3.30;;;-5.20;91.00;;;;;;5046429;28;20231;-77
2024/01/09 05:51:18;;;;;;;2.92;2.65;;;-5.00;91.00;;;;;;5047115;28;20284;-76
2024/01/09 05:53:47;;;;;;;3.05;2.60;;;-5.10;90.80;;;;;;5046814;28;20209;-77
2024/01/09 05:56:15;;;;;;;4.25;2.47;;;-5.20;90.90;;;;;;5047825;27;20200;-77
2024/01/09 05:58:41;;;;;;;7.20;3.95;;;-5.20;90.80;;;;;;5048171;28;20585;-78
2024/01/09 06:01:08;;;;;;;4.00;3.28;;;-5.20;90.80;;;;;;5046672;28;20228;-78
2024/01/09 06:03:35;;;;;;;7.45;4.40;;;-5.20;90.60;;;;;;5032181;28;20213;-77
2024/01/09 06:06:02;;;;;;;5.15;3.90;;;-5.30;90.70;;;;;;5036827;28;20208;-82
2024/01/09 06:08:29;;;;;;;4.65;4.20;;;-5.20;91.00;;;;;;5042536;28;20204;-88
2024/01/09 06:10:56;;;;;;;4.93;3.30;;;-5.10;90.80;;;;;;5038407;28;20299;-87
2024/01/09 06:13:24;;;;;;;2.55;2.35;;;-5.10;90.70;;;;;;5045817;28;20206;-82
2024/01/09 06:15:51;;;;;;;3.33;2.35;;;-5.10;90.70;;;;;;5057455;28;20205;-90
2024/01/09 06:18:20;;;;;;;5.22;3.92;;;-5.00;90.70;;;;;;5063340;28;20223;-90
2024/01/09 06:20:47;;;;;;;4.88;2.97;;;-5.00;90.50;;;;;;5058588;28;20196;-90
2024/01/09 06:23:14;;;;;;;2.67;2.47;;;-5.10;90.20;;;;;;5059383;27;20227;-87
2024/01/09 06:25:41;;;;;;;2.72;2.53;;;-5.20;90.30;;;;;;5058391;28;20205;-89
2024/01/09 06:28:08;;;;;;;3.60;3.30;;;-5.00;90.60;;;;;;5058282;28;20726;-87
2024/01/09 06:30:37;;;;;;;4.15;3.70;;;-5.00;90.40;;;;;;5058655;27;20196;-87
2024/01/09 06:33:04;;;;;;;3.38;3.15;;;-5.10;90.30;;;;;;5057077;27;20304;-84
2024/01/09 06:35:31;;;;;;;7.85;3.15;;;-5.10;90.30;;;;;;5069095;27;20216;-89
2024/01/09 06:37:58;;;;;;;7.90;3.30;;;-5.10;90.20;;;;;;5060222;27;20311;-90
2024/01/09 06:40:51;;;;;;;6.43;3.55;;;-5.00;90.30;;;;;;5061763;28;20687;-90
2024/01/09 06:43:19;;;;;;;4.15;2.17;;;-4.90;90.00;;;;;;5068778;27;20677;-90
2024/01/09 06:45:52;;;;;;;7.53;4.70;;;-5.10;90.10;;;;;;5064309;27;20738;-91
2024/01/09 06:48:21;;;;;;;8.25;5.22;;;-4.30;90.80;;;;;;5061952;27;20617;-91
2024/01/09 06:50:50;;;;;;;3.53;3.22;;;-5.10;90.30;;;;;;5060271;27;20214;-91
2024/01/09 06:53:17;;;;;;;8.50;4.03;;;-5.00;89.60;;;;;;5070296;27;20204;-91
2024/01/09 06:55:44;;;;;;;11.13;4.40;;;-5.10;89.70;;;;;;5081877;27;20261;-91
2024/01/09 06:58:12;;;;;;;2.47;2.38;;;-5.00;89.80;;;;;;5062416;27;20575;-91
2024/01/09 07:00:39;;;;;;;4.82;4.47;;;-5.00;89.60;;;;;;5055385;28;20224;-91
2024/01/09 07:03:08;;;;;;;7.05;4.00;;;-4.80;89.20;;;;;;5056713;28;20212;-91
2024/01/09 07:05:35;;;;;;;2.95;2.72;;;-5.00;89.40;;;;;;5055822;28;20200;-91
2024/01/09 07:08:03;;;;;;;4.32;3.78;;;-5.00;89.40;;;;;;5057421;27;20682;-91
2024/01/09 07:10:30;;;;;;;4.72;3.05;;;-4.90;88.90;;;;;;5057837;27;20210;-89
2024/01/09 07:12:57;;;;;;;6.03;3.17;;;-4.90;88.40;;;;;;5063550;27;20740;-90
2024/01/09 07:15:24;;;;;;;6.45;5.75;;;-5.00;88.10;;;;;;5072946;27;21124;-90
2024/01/09 07:17:51;;;;;;;4.45;4.10;;;-4.90;87.90;;;;;;5048967;27;20314;-91
2024/01/09 07:20:21;;;;;;;9.45;5.95;;;-4.60;88.60;;;;;;5053437;28;20535;-90
2024/01/09 07:22:51;;;;;;;14.18;7.65;;;-4.90;88.20;;;;;;5052272;28;20209;-90
2024/01/09 07:25:19;;;;;;;14.10;6.13;;;-4.20;88.50;;;;;;5059178;27;20209;-91
2024/01/09 07:27:48;;;;;;;9.10;6.05;;;-5.00;87.90;;;;;;5065331;27;20204;-91
2024/01/09 07:30:16;;;;;;;14.65;7.57;;;-4.50;89.10;;;;;;5055357;27;20328;-90
2024/01/09 07:32:43;;;;;;;4.90;4.30;;;-5.00;88.60;;;;;;5065526;27;20208;-90
2024/01/09 07:35:10;;;;;;;10.38;4.45;;;-4.90;88.50;;;;;;5082500;27;20209;-91
2024/01/09 07:37:39;;;;;;;3.38;3.15;;;-4.90;88.20;;;;;;5059479;27;20664;-92
2024/01/09 07:40:07;;;;;;;4.82;3.63;;;-4.90;88.20;;;;;;5060089;28;20257;-91
2024/01/09 07:42:34;;;;;;;4.43;4.07;;;-4.90;88.60;;;;;;5062181;28;20211;-91
2024/01/09 07:45:02;;;;;;;4.90;4.20;;;-4.90;88.20;;;;;;5054824;27;20204;-90
2024/01/09 07:47:29;;;;;;;7.93;5.55;;;-5.00;88.20;;;;;;5057333;27;20243;-91
2024/01/09 07:49:56;;;;;;;4.90;4.45;;;-4.70;88.60;;;;;;5057807;27;20296;-91
2024/01/09 07:52:26;;;;;;;3.50;3.20;;;-4.90;87.80;;;;;;5057442;28;20691;-91
2024/01/09 07:54:54;;;;;;;2.70;2.55;;;-4.70;87.80;;;;;;5058937;28;20219;-91
2024/01/09 07:57:24;;;;;;;7.10;4.60;;;-4.80;88.50;;;;;;5053878;28;20208;-91
2024/01/09 07:59:51;;;;;;;4.38;3.95;;;-4.80;87.80;;;;;;5058183;28;20239;-91
2024/01/09 08:02:18;;;;;;;3.85;2.70;;;-4.80;87.40;;;;;;5059064;27;20383;-90
2024/01/09 08:04:45;;;;;;;3.13;2.80;;;-4.90;87.40;;;;;;5051637;28;20315;-91
2024/01/09 08:07:12;;;;;;;3.35;3.15;;;-4.80;87.70;;;;;;5050851;28;20211;-89
2024/01/09 08:09:40;;;;;;;10.23;5.90;;;-4.70;88.10;;;;;;5049344;28;20230;-91
2024/01/09 08:12:29;;;;;;;4.60;3.00;;;-4.90;87.30;;;;;;5041682;27;20208;-89
2024/01/09 08:14:56;;;;;;;3.75;3.45;;;-4.80;87.30;;;;;;5044899;27;20216;-90
2024/01/09 08:17:25;;;;;;;6.47;4.60;;;-4.80;87.10;;;;;;5069825;27;20270;-89
2024/01/09 08:19:52;;;;;;;8.35;4.72;;;-4.70;87.00;;;;;;5076057;27;20233;-91
2024/01/09 08:22:19;;;;;;;3.42;3.15;;;-4.60;87.00;;;;;;5058595;28;20311;-91
2024/01/09 08:24:46;;;;;;;5.88;4.55;;;-4.60;86.60;;;;;;5062907;27;20614;-91
2024/01/09 08:27:18;;;;;;;8.10;4.72;;;-4.40;87.20;;;;;;5066920;27;20361;-91
2024/01/09 08:29:47;;;;;;;12.25;4.65;;;-4.60;86.80;;;;;;5036722;28;20203;-91
2024/01/09 08:32:15;;;;;;;9.05;4.15;;;-4.20;86.80;;;;;;5041876;28;20204;-90
2024/01/09 08:34:45;;;;;;;5.53;4.80;;;-4.40;86.70;;;;;;5050544;27;20204;-91
2024/01/09 08:37:12;;;;;;;3.50;3.20;;;-4.30;86.80;;;;;;5046601;27;20204;-90
2024/01/09 08:39:39;;;;;;;3.90;3.47;;;-4.30;87.00;;;;;;5046708;27;20223;-91
2024/01/09 08:42:07;;;;;;;4.57;4.28;;;-4.20;86.50;;;;;;5038838;28;20197;-90
2024/01/09 08:44:34;;;;;;;13.18;5.95;;;-4.20;86.40;;;;;;5036831;28;20210;-90
2024/01/09 08:47:03;;;;;;;8.52;3.72;;;-4.10;86.40;;;;;;5043567;27;20203;-90
2024/01/09 08:49:30;;;;;;;8.48;4.68;;;-4.00;85.80;;;;;;5046633;28;20753;-92
2024/01/09 08:51:57;;;;;;;6.40;5.38;;;-3.90;85.20;;;;;;5054121;27;20294;-92
2024/01/09 08:54:24;;;;;;;3.55;3.22;;;-3.60;85.50;;;;;;5049091;28;20215;-92
2024/01/09 08:56:51;;;;;;;7.38;4.97;;;-3.70;85.10;;;;;;5052573;28;20214;-91
2024/01/09 08:59:18;;;;;;;9.10;4.05;;;-3.90;84.30;;;;;;5054248;28;20216;-91
2024/01/09 09:01:46;;;;;;;5.07;4.20;;;-3.20;85.60;;;;;;5054043;28;20216;-91
2024/01/09 09:04:14;;;;;;;4.65;4.15;;;-3.80;85.30;;;;;;5052075;27;20261;-92
2024/01/09 09:06:42;;;;;;;4.00;3.67;;;-3.60;85.70;;;;;;5090404;27;20205;-91
2024/01/09 09:09:09;;;;;;;5.68;5.00;;;-3.60;84.10;;;;;;5060131;27;20286;-91
2024/01/09 09:11:36;;;;;;;5.95;4.97;;;-3.10;83.50;;;;;;5061241;27;20208;-91
2024/01/09 09:14:03;;;;;;;6.05;4.65;;;-3.00;83.00;;;;;;5076335;27;20201;-92
2024/01/09 09:16:30;;;;;;;8.40;4.68;;;-3.40;81.90;;;;;;5072659;27;20306;-91
2024/01/09 09:18:58;;;;;;;6.00;5.20;;;-3.60;82.20;;;;;;5070534;27;20288;-91
2024/01/09 09:21:26;;;;;;;9.25;5.97;;;-3.60;82.40;;;;;;5070225;27;20212;-90
2024/01/09 09:23:54;;;;;;;5.45;3.63;;;-3.40;82.00;;;;;;5071261;27;20214;-92
2024/01/09 09:26:21;;;;;;;9.57;3.75;;;-3.00;82.50;;;;;;5072955;27;20674;-92
2024/01/09 09:28:50;;;;;;;6.05;5.32;;;-3.10;82.20;;;;;;5048476;28;20204;-91
2024/01/09 09:31:17;;;;;;;5.57;4.82;;;-2.90;82.50;;;;;;5048479;28;20220;-91
2024/01/09 09:33:46;;;;;;;5.35;3.60;;;-3.20;81.60;;;;;;5064534;28;20248;-91
2024/01/09 09:36:13;;;;;;;7.50;4.03;;;-3.20;81.40;;;;;;5059312;28;20300;-92
2024/01/09 09:38:42;;;;;;;5.45;5.05;;;-3.10;81.20;;;;;;5046450;28;20223;-91
2024/01/09 09:41:09;;;;;;;6.72;5.10;;;-2.80;81.10;;;;;;5047631;28;20232;-92
2024/01/09 09:43:40;;;;;;;10.38;5.50;;;-3.10;81.30;;;;;;5040630;28;20208;-92
2024/01/09 09:46:17;;;;;;;4.70;4.25;;;-2.70;81.40;;;;;;5039150;28;20268;-92
2024/01/09 09:48:44;;;;;;;7.78;3.78;;;-3.10;80.20;;;;;;5049158;28;20332;-92
2024/01/09 09:51:11;;;;;;;8.50;5.32;;;-2.80;80.60;;;;;;5056518;27;20204;-92
2024/01/09 09:53:38;;;;;;;6.72;5.43;;;-2.40;81.60;;;;;;5053817;28;20296;-92
2024/01/09 09:56:08;;;;;;;9.75;4.88;;;-2.60;82.10;;;;;;5055202;27;20208;-92
2024/01/09 09:58:35;;;;;;;7.10;5.05;;;-2.60;82.00;;;;;;5054083;27;20934;-91
2024/01/09 10:01:03;;;;;;;5.00;4.40;;;-2.70;80.20;;;;;;5051996;27;20204;-92
2024/01/09 10:03:32;;;;;;;6.70;4.28;;;-2.90;79.20;;;;;;5051783;27;20293;-92
2024/01/09 10:06:04;;;;;;;5.50;4.45;;;-2.60;79.00;;;;;;5044373;28;20201;-93
2024/01/09 10:08:35;;;;;;;11.25;5.07;;;-2.60;78.60;;;;;;5050697;27;20212;-92
2024/01/09 10:11:05;;;;;;;8.48;5.28;;;-2.50;77.20;;;;;;5048870;28;20212;-92
2024/01/09 10:13:34;;;;;;;6.85;5.32;;;-2.50;76.60;;;;;;5064202;28;20252;-92
2024/01/09 10:16:05;;;;;;;10.98;5.78;;;-2.50;75.40;;;;;;5064574;27;20272;-92
2024/01/09 10:18:33;;;;;;;4.07;3.33;;;-1.90;77.30;;;;;;5068584;28;20215;-92
2024/01/09 10:21:00;;;;;;;12.80;6.03;;;-2.50;75.60;;;;;;5066020;28;20243;-92
2024/01/09 10:23:30;;;;;;;8.35;5.60;;;-2.30;76.20;;;;;;5067282;27;20665;-91
2024/01/09 10:25:58;;;;;;;5.50;4.10;;;-2.50;75.60;;;;;;5065322;27;20567;-89
2024/01/09 10:28:25;;;;;;;4.88;4.38;;;-2.50;74.40;;;;;;5064320;28;20213;-93
2024/01/09 10:30:54;;;;;;;4.82;3.85;;;-2.40;74.60;;;;;;5063886;27;20207;-92
2024/01/09 10:33:22;;;;;;;8.63;5.60;;;-2.50;74.10;;;;;;5055148;27;20209;-91
2024/01/09 10:35:50;;;;;;;9.82;4.20;;;-2.40;74.20;;;;;;5060459;27;20284;-91
2024/01/09 10:38:24;;;;;;;4.18;3.88;;;-2.40;74.00;;;;;;5056421;28;20238;-92
2024/01/09 10:40:56;;;;;;;5.72;5.22;;;-1.90;75.70;;;;;;5060980;27;20227;-92
2024/01/09 10:43:25;;;;;;;6.85;3.78;;;-2.30;75.00;;;;;;5057454;27;20720;-92
2024/01/09 10:45:54;;;;;;;8.88;3.83;;;-1.80;76.60;;;;;;5059664;27;20208;-92
2024/01/09 10:48:22;;;;;;;9.02;3.78;;;-2.20;74.60;;;;;;5056115;27;20528;-92
2024/01/09 10:50:52;;;;;;;9.80;6.03;;;-1.60;75.10;;;;;;5055299;28;20214;-92
2024/01/09 10:53:22;;;;;;;5.85;4.28;;;-2.20;74.60;;;;;;5042218;28;20211;-92
2024/01/09 10:55:51;;;;;;;12.68;7.20;;;-1.50;76.00;;;;;;5051707;27;20309;-93
2024/01/09 10:58:19;;;;;;;4.90;3.03;;;-1.80;75.30;;;;;;5048678;27;20681;-92
2024/01/09 11:00:47;;;;;;;5.97;4.28;;;-2.10;73.90;;;;;;5053757;27;20506;-91
2024/01/09 11:03:16;;;;;;;6.50;3.85;;;-1.60;75.20;;;;;;5052239;27;20204;-90
2024/01/09 11:05:43;;;;;;;12.70;5.40;;;-2.10;75.70;;;;;;5043132;28;20638;-90
2024/01/09 11:08:14;;;;;;;5.30;3.42;;;-1.70;75.60;;;;;;5049030;28;20205;-90
2024/01/09 11:10:42;;;;;;;5.07;3.80;;;-2.10;74.60;;;;;;5050041;27;20325;-91
2024/01/09 11:13:12;;;;;;;12.90;5.03;;;-2.10;75.40;;;;;;5049458;27;20333;-91
2024/01/09 11:15:44;;;;;;;8.50;4.30;;;-2.10;74.80;;;;;;5063894;27;20214;-91
2024/01/09 11:18:16;;;;;;;8.13;4.88;;;-1.30;75.30;;;;;;5067389;27;20680;-91
2024/01/09 11:20:43;;;;;;;7.97;4.97;;;-2.00;75.00;;;;;;5066749;27;20228;-91
2024/01/09 11:23:11;;;;;;;12.40;4.35;;;-1.90;74.50;;;;;;5053900;28;20320;-91
2024/01/09 11:25:39;;;;;;;7.18;4.15;;;-1.90;74.80;;;;;;5061919;27;20245;-90
2024/01/09 11:28:07;;;;;;;5.25;4.75;;;-1.90;74.50;;;;;;5062306;27;20214;-91
2024/01/09 11:30:34;;;;;;;8.07;5.53;;;-1.80;73.90;;;;;;5064698;27;20200;-90
2024/01/09 11:33:31;;;;;;;5.93;5.10;;;-1.30;74.80;;;;;;5062304;27;20211;-91
2024/01/09 11:36:06;;;;;;;6.68;4.80;;;-1.40;75.40;;;;;;5057021;28;20685;-91
2024/01/09 11:38:33;;;;;;;7.18;4.47;;;-1.20;76.10;;;;;;5061323;27;20240;-91
2024/01/09 11:41:06;;;;;;;6.53;5.50;;;-1.80;74.70;;;;;;5059889;28;20220;-91
2024/01/09 11:43:57;;;;;;;5.15;3.92;;;-1.80;74.00;;;;;;5059074;27;20637;-91
2024/01/09 11:46:26;;;;;;;9.77;5.28;;;-1.80;74.30;;;;;;5052897;27;20223;-91
2024/01/09 11:48:55;;;;;;;5.00;3.50;;;-1.70;73.80;;;;;;5057327;27;20215;-91
2024/01/09 11:51:23;;;;;;;17.83;5.70;;;-1.50;75.50;;;;;;5055466;28;20209;-91
2024/01/09 11:53:51;;;;;;;5.35;3.55;;;-1.60;75.20;;;;;;5054416;28;20203;-92
2024/01/09 11:56:19;;;;;;;8.82;4.60;;;-1.70;74.10;;;;;;5053224;28;20838;-92
2024/01/09 11:58:50;;;;;;;13.05;7.38;;;-1.60;73.20;;;;;;5054568;27;20213;-91
2024/01/09 12:01:19;;;;;;;6.63;3.85;;;-0.90;72.10;;;;;;5045661;28;20228;-92
2024/01/09 12:03:52;;;;;;;7.70;5.22;;;-1.50;70.60;;;;;;5052661;28;20609;-92
2024/01/09 12:06:23;;;;;;;4.68;3.70;;;-1.50;71.20;;;;;;5043818;28;20205;-92
2024/01/09 12:08:50;;;;;;;11.73;5.57;;;-1.40;71.90;;;;;;5050877;27;20211;-91
2024/01/09 12:11:18;;;;;;;7.10;4.45;;;-1.40;71.30;;;;;;5041750;28;20283;-91
2024/01/09 12:13:45;;;;;;;6.15;4.45;;;-0.80;70.80;;;;;;5047480;28;20213;-92
2024/01/09 12:16:17;;;;;;;6.40;3.67;;;-1.30;70.70;;;;;;5059345;28;20703;-92
2024/01/09 12:18:48;;;;;;;4.85;3.40;;;-1.40;72.00;;;;;;5067454;27;20307;-91
2024/01/09 12:21:16;;;;;;;8.50;3.67;;;-1.50;70.80;;;;;;5065481;27;20237;-92
2024/01/09 12:23:45;;;;;;;8.48;5.60;;;-1.30;70.90;;;;;;5055484;27;20265;-91
2024/01/09 12:26:13;;;;;;;4.70;2.85;;;-1.30;70.20;;;;;;5043512;27;20689;-92
2024/01/09 12:28:43;;;;;;;8.63;3.38;;;-1.20;70.20;;;;;;5063327;28;20213;-91
2024/01/09 12:31:10;;;;;;;9.75;5.30;;;-1.10;69.30;;;;;;5060936;28;20272;-92
2024/01/09 12:33:40;;;;;;;7.45;5.15;;;-1.20;69.90;;;;;;5062299;28;20203;-91
2024/01/09 12:36:07;;;;;;;5.07;4.05;;;-1.30;70.60;;;;;;5060209;27;20618;-91
2024/01/09 12:38:35;;;;;;;5.53;4.47;;;-1.20;71.40;;;;;;5061634;28;20291;-91
2024/01/09 12:41:05;;;;;;;5.00;4.50;;;-1.10;71.80;;;;;;5050516;27;20221;-90
2024/01/09 12:43:33;;;;;;;5.05;3.50;;;-1.00;70.30;;;;;;5040769;28;20205;-91
2024/01/09 12:46:01;;;;;;;4.50;3.42;;;-1.00;69.40;;;;;;5054272;27;20569;-91
2024/01/09 12:48:29;;;;;;;7.45;4.07;;;-1.20;69.80;;;;;;5056289;27;20307;-90
2024/01/09 12:51:02;;;;;;;4.13;3.72;;;-1.20;70.50;;;;;;5055279;28;20290;-91